Terminal Aerodrome Forecast
Issued by NWS

Home | Current Version | Previous Version | Graphics & Text | Print | Product List | Glossary On
Versions: 1 2 3 4 5 6 7 8 9 10 11 12 13 14 15 16
000
FTUS43 KABR 181700
TAFPIR
TAF
KPIR 181731Z 1818/1918 15015KT P6SM SKC
     FM190200 17007KT P6SM BKN250
     FM191700 32012KT P6SM SKC=

USA.gov is the U.S. government's official web portal to all federal, state and local government web resources and services.